Time;durP1;ratioP1;P1;durP2;ratioP2;P2;SDS_P1;SDS_P2;PMS_P1;PMS_P2;Temp;Humidity;BMP_temperature;BMP_pressure;BME280_temperature;BME280_humidity;BME280_pressure;Samples;Min_cycle;Max_cycle;Signal;HPM_P1;HPM_P2
2022/03/18 00:01:17;;;;;;;25.60;13.55;;;;;;;;;;5003069;28;20026;-75
2022/03/18 00:03:43;;;;;;;26.92;13.43;;;;;;;;;;5002557;28;20438;-74
2022/03/18 00:06:09;;;;;;;27.35;13.55;;;;;;;;;;5002728;28;20029;-74
2022/03/18 00:08:35;;;;;;;23.58;12.50;;;;;;;;;;5001639;28;20030;-75
2022/03/18 00:11:01;;;;;;;27.67;13.05;;;;;;;;;;4986110;28;20038;-74
2022/03/18 00:13:26;;;;;;;27.73;14.02;;;;;;;;;;4982177;28;20014;-73
2022/03/18 00:15:54;;;;;;;27.52;13.40;;;;;;;;;;4982184;28;20069;-74
2022/03/18 00:18:19;;;;;;;26.08;14.27;;;;;;;;;;4981805;28;20031;-74
2022/03/18 00:20:44;;;;;;;24.85;13.55;;;;;;;;;;4982930;28;20029;-74
2022/03/18 00:23:12;;;;;;;24.58;13.25;;;;;;;;;;4982068;28;20054;-74
2022/03/18 00:25:37;;;;;;;25.05;13.75;;;;;;;;;;4981856;28;20025;-74
2022/03/18 00:28:03;;;;;;;26.15;13.38;;;;;;;;;;4981783;28;20035;-74
2022/03/18 00:30:28;;;;;;;28.83;14.07;;;;;;;;;;4991375;28;20026;-76
2022/03/18 00:32:54;;;;;;;28.35;14.00;;;;;;;;;;5001177;28;20030;-74
2022/03/18 00:35:19;;;;;;;27.67;13.07;;;;;;;;;;5001633;28;20058;-74
2022/03/18 00:37:45;;;;;;;24.02;12.95;;;;;;;;;;5001773;28;20632;-74
2022/03/18 00:40:10;;;;;;;28.25;13.63;;;;;;;;;;5001920;28;20505;-74
2022/03/18 00:42:36;;;;;;;25.80;13.63;;;;;;;;;;5001924;28;20026;-74
2022/03/18 00:45:04;;;;;;;25.55;13.13;;;;;;;;;;5001660;28;20344;-73
2022/03/18 00:52:58;;;;;;;26.17;13.07;;;;;;;;;;5001712;28;20033;-78
2022/03/18 00:55:24;;;;;;;26.35;13.38;;;;;;;;;;5001792;28;20022;-76
2022/03/18 00:57:49;;;;;;;27.77;14.00;;;;;;;;;;5002316;28;20330;-76
2022/03/18 01:00:15;;;;;;;26.15;13.93;;;;;;;;;;5001187;28;20094;-78
2022/03/18 01:02:40;;;;;;;29.33;14.10;;;;;;;;;;5002213;28;20026;-77
2022/03/18 01:05:07;;;;;;;24.95;13.15;;;;;;;;;;5001875;28;20026;-77
2022/03/18 01:07:32;;;;;;;27.02;13.48;;;;;;;;;;5001833;28;20113;-73
2022/03/18 01:09:58;;;;;;;26.17;13.38;;;;;;;;;;5002013;28;20226;-73
2022/03/18 01:12:25;;;;;;;25.67;12.98;;;;;;;;;;5001797;28;20034;-73
2022/03/18 01:14:51;;;;;;;26.85;13.57;;;;;;;;;;5001829;28;20033;-74
2022/03/18 01:17:16;;;;;;;25.38;13.95;;;;;;;;;;5001875;28;20402;-74
2022/03/18 01:19:43;;;;;;;27.58;13.43;;;;;;;;;;5001661;28;20097;-73
2022/03/18 01:22:11;;;;;;;26.70;13.15;;;;;;;;;;5001794;28;20026;-73
2022/03/18 01:24:37;;;;;;;29.25;14.40;;;;;;;;;;5001878;28;20086;-74
2022/03/18 01:27:07;;;;;;;26.85;13.63;;;;;;;;;;5000702;28;20018;-74
2022/03/18 01:29:32;;;;;;;26.33;14.07;;;;;;;;;;5001790;28;20026;-74
2022/03/18 01:31:58;;;;;;;30.92;13.20;;;;;;;;;;5001593;28;20044;-73
2022/03/18 01:34:24;;;;;;;28.65;13.95;;;;;;;;;;5000130;28;20077;-74
2022/03/18 01:36:49;;;;;;;30.52;14.07;;;;;;;;;;5001572;28;20118;-74
2022/03/18 01:39:15;;;;;;;31.08;13.35;;;;;;;;;;5001910;28;20022;-75
2022/03/18 01:41:40;;;;;;;26.75;13.73;;;;;;;;;;5001495;28;20271;-74
2022/03/18 01:44:10;;;;;;;28.73;13.88;;;;;;;;;;5001489;28;20030;-73
2022/03/18 01:46:37;;;;;;;28.15;13.65;;;;;;;;;;5001011;28;20037;-73
2022/03/18 01:49:03;;;;;;;25.63;13.20;;;;;;;;;;5012695;28;20030;-73
2022/03/18 01:51:29;;;;;;;31.92;13.82;;;;;;;;;;5002969;28;20049;-73
2022/03/18 01:54:44;;;;;;;28.38;13.65;;;;;;;;;;5005622;28;20022;-74
2022/03/18 01:56:40;;;;;;;28.98;13.65;;;;;;;;;;5005345;28;20038;-73
2022/03/18 01:59:06;;;;;;;29.02;14.00;;;;;;;;;;4988961;28;20045;-74
2022/03/18 02:01:31;;;;;;;25.98;13.10;;;;;;;;;;4984086;28;20031;-75
2022/03/18 02:03:56;;;;;;;28.52;13.40;;;;;;;;;;4984531;28;20100;-76
2022/03/18 02:06:23;;;;;;;29.40;13.75;;;;;;;;;;4995139;28;20030;-75
2022/03/18 02:08:48;;;;;;;27.38;13.77;;;;;;;;;;4999942;28;20496;-81
2022/03/18 02:11:14;;;;;;;32.47;13.25;;;;;;;;;;5005150;28;20030;-78
2022/03/18 02:13:39;;;;;;;27.75;14.18;;;;;;;;;;5000985;28;20046;-75
2022/03/18 02:16:05;;;;;;;30.48;14.02;;;;;;;;;;4990656;28;20038;-80
2022/03/18 02:18:30;;;;;;;28.65;13.70;;;;;;;;;;5005491;28;20392;-77
2022/03/18 02:20:56;;;;;;;33.50;14.38;;;;;;;;;;5007787;28;20038;-77
2022/03/18 02:23:21;;;;;;;27.17;14.05;;;;;;;;;;5004495;28;20018;-80
2022/03/18 02:25:47;;;;;;;28.85;13.63;;;;;;;;;;5004360;28;20030;-79
2022/03/18 02:28:13;;;;;;;25.80;13.98;;;;;;;;;;5004445;28;20125;-80
2022/03/18 02:30:38;;;;;;;25.52;12.68;;;;;;;;;;5004142;28;20030;-76
2022/03/18 02:33:04;;;;;;;29.92;14.63;;;;;;;;;;5004248;28;20026;-80
2022/03/18 02:35:30;;;;;;;30.73;13.93;;;;;;;;;;5003970;28;20097;-79
2022/03/18 02:37:57;;;;;;;30.27;14.57;;;;;;;;;;5004502;28;20039;-81
2022/03/18 02:40:24;;;;;;;29.15;14.20;;;;;;;;;;5004361;28;20326;-77
2022/03/18 02:42:49;;;;;;;30.35;14.98;;;;;;;;;;5004787;28;20438;-80
2022/03/18 02:45:14;;;;;;;29.95;14.02;;;;;;;;;;5004704;28;20029;-80
2022/03/18 02:47:40;;;;;;;28.92;13.90;;;;;;;;;;5004389;28;20026;-80
2022/03/18 02:50:06;;;;;;;26.75;14.10;;;;;;;;;;5004225;28;20255;-79
2022/03/18 02:52:31;;;;;;;30.95;14.57;;;;;;;;;;5004105;28;20093;-78
2022/03/18 02:54:57;;;;;;;29.80;13.98;;;;;;;;;;5004330;28;20425;-73
2022/03/18 02:57:22;;;;;;;30.67;14.43;;;;;;;;;;5004333;28;20077;-75
2022/03/18 02:59:48;;;;;;;31.42;15.30;;;;;;;;;;5004196;28;20068;-75
2022/03/18 03:02:14;;;;;;;29.30;14.05;;;;;;;;;;5004052;28;20238;-76
2022/03/18 03:07:58;;;;;;;28.85;14.52;;;;;;;;;;5004066;28;20277;-73
2022/03/18 03:10:11;;;;;;;35.55;15.07;;;;;;;;;;5003982;28;20064;-75
2022/03/18 03:12:38;;;;;;;31.85;14.82;;;;;;;;;;5002818;28;20053;-73
2022/03/18 03:15:04;;;;;;;36.78;15.15;;;;;;;;;;5004006;28;20038;-76
2022/03/18 03:17:29;;;;;;;30.73;13.93;;;;;;;;;;5004019;28;20022;-74
2022/03/18 03:19:56;;;;;;;35.42;14.57;;;;;;;;;;5003578;28;20026;-76
2022/03/18 03:22:21;;;;;;;32.33;14.63;;;;;;;;;;5004008;28;20242;-74
2022/03/18 03:24:47;;;;;;;30.13;15.02;;;;;;;;;;5003847;28;20446;-74
2022/03/18 03:27:12;;;;;;;30.23;15.15;;;;;;;;;;5003645;28;20081;-76
2022/03/18 03:29:38;;;;;;;29.48;14.50;;;;;;;;;;5003402;28;20353;-75
2022/03/18 03:32:04;;;;;;;26.20;13.82;;;;;;;;;;5003679;28;20053;-76
2022/03/18 03:34:29;;;;;;;30.30;14.50;;;;;;;;;;5003672;28;20030;-75
2022/03/18 03:36:55;;;;;;;33.10;14.75;;;;;;;;;;5001648;28;20046;-74
2022/03/18 03:39:20;;;;;;;29.42;14.52;;;;;;;;;;4992528;28;20031;-74
2022/03/18 03:41:46;;;;;;;31.15;15.00;;;;;;;;;;4984050;28;20078;-74
2022/03/18 03:44:12;;;;;;;29.40;13.65;;;;;;;;;;4984153;28;20046;-74
2022/03/18 03:46:37;;;;;;;28.90;14.23;;;;;;;;;;4996626;28;20052;-74
2022/03/18 03:49:03;;;;;;;32.13;13.93;;;;;;;;;;5019802;28;20030;-75
2022/03/18 03:51:28;;;;;;;27.67;13.57;;;;;;;;;;4999899;28;20086;-74
2022/03/18 03:53:53;;;;;;;31.00;14.15;;;;;;;;;;4982780;28;20034;-74
2022/03/18 03:56:19;;;;;;;30.20;14.02;;;;;;;;;;4992599;28;20073;-74
2022/03/18 03:58:44;;;;;;;29.33;14.75;;;;;;;;;;4983696;28;20085;-75
2022/03/18 04:01:09;;;;;;;27.92;14.48;;;;;;;;;;4991882;28;20030;-74
2022/03/18 04:03:35;;;;;;;32.38;13.93;;;;;;;;;;5003221;28;20210;-74
2022/03/18 04:06:01;;;;;;;28.27;14.30;;;;;;;;;;4997652;28;20106;-74
2022/03/18 04:08:26;;;;;;;33.20;15.10;;;;;;;;;;4987667;28;20034;-74
2022/03/18 04:10:52;;;;;;;32.08;14.43;;;;;;;;;;4992252;28;20034;-74
2022/03/18 04:13:17;;;;;;;30.05;15.55;;;;;;;;;;5003312;28;20102;-75
2022/03/18 04:15:43;;;;;;;34.45;15.23;;;;;;;;;;5001964;28;20369;-74
2022/03/18 04:18:08;;;;;;;32.00;15.13;;;;;;;;;;4983475;28;20031;-76
2022/03/18 04:20:34;;;;;;;29.85;14.18;;;;;;;;;;4996774;28;20429;-74
2022/03/18 04:22:59;;;;;;;29.75;13.95;;;;;;;;;;5002543;28;20053;-74
2022/03/18 04:25:24;;;;;;;30.80;15.18;;;;;;;;;;5003093;28;20493;-73
2022/03/18 04:27:50;;;;;;;33.28;14.88;;;;;;;;;;4993072;28;20049;-74
2022/03/18 04:30:16;;;;;;;33.10;14.70;;;;;;;;;;4983141;28;20030;-74
2022/03/18 04:32:42;;;;;;;31.77;15.45;;;;;;;;;;4990916;28;20069;-79
2022/03/18 04:35:09;;;;;;;30.58;15.55;;;;;;;;;;4986793;28;20093;-74
2022/03/18 04:37:35;;;;;;;35.53;16.38;;;;;;;;;;4986918;28;20098;-76
2022/03/18 04:40:01;;;;;;;34.45;15.98;;;;;;;;;;4987388;28;20153;-80
2022/03/18 04:42:26;;;;;;;32.85;16.17;;;;;;;;;;4983238;28;20035;-74
2022/03/18 04:44:52;;;;;;;31.67;16.38;;;;;;;;;;4986741;28;20325;-74
2022/03/18 04:47:17;;;;;;;35.80;17.55;;;;;;;;;;4992017;28;20050;-74
2022/03/18 04:49:43;;;;;;;35.13;16.80;;;;;;;;;;4985316;28;20341;-75
2022/03/18 04:52:08;;;;;;;33.25;15.38;;;;;;;;;;5002729;28;20036;-74
2022/03/18 04:54:34;;;;;;;30.63;15.05;;;;;;;;;;5003309;28;20065;-75
2022/03/18 04:59:43;;;;;;;32.88;15.57;;;;;;;;;;4987058;28;20057;-74
2022/03/18 05:02:13;;;;;;;30.42;15.00;;;;;;;;;;4993641;28;20310;-78
2022/03/18 05:04:38;;;;;;;34.53;16.27;;;;;;;;;;5001831;28;20026;-75
2022/03/18 05:07:07;;;;;;;28.05;14.43;;;;;;;;;;4992638;28;20054;-74
2022/03/18 05:09:33;;;;;;;31.83;14.27;;;;;;;;;;4992322;28;20052;-74
2022/03/18 05:11:58;;;;;;;28.42;14.07;;;;;;;;;;4989742;28;20042;-73
2022/03/18 05:14:24;;;;;;;29.00;14.60;;;;;;;;;;4997816;28;20033;-73
2022/03/18 05:16:49;;;;;;;31.75;14.60;;;;;;;;;;4990778;28;20034;-73
2022/03/18 05:19:15;;;;;;;31.77;15.05;;;;;;;;;;4993052;28;20043;-73
2022/03/18 05:21:41;;;;;;;30.67;13.90;;;;;;;;;;4985829;28;20094;-72
2022/03/18 05:24:07;;;;;;;30.67;14.57;;;;;;;;;;5031242;28;20030;-73
2022/03/18 05:26:33;;;;;;;26.13;13.73;;;;;;;;;;4992183;28;20037;-73
2022/03/18 05:28:59;;;;;;;31.85;13.60;;;;;;;;;;5000548;28;20034;-73
2022/03/18 05:31:26;;;;;;;27.88;14.02;;;;;;;;;;4990224;28;20122;-73
2022/03/18 05:33:51;;;;;;;27.08;13.18;;;;;;;;;;4983130;28;20026;-74
2022/03/18 05:36:17;;;;;;;24.08;13.35;;;;;;;;;;4993343;28;20018;-72
2022/03/18 05:38:43;;;;;;;24.77;13.05;;;;;;;;;;4996836;28;20101;-73
2022/03/18 05:41:09;;;;;;;26.35;12.65;;;;;;;;;;4991113;28;20038;-73
2022/03/18 05:43:36;;;;;;;24.35;12.45;;;;;;;;;;4997014;28;20101;-74
2022/03/18 05:46:01;;;;;;;23.98;12.75;;;;;;;;;;4987097;28;20030;-73
2022/03/18 05:48:26;;;;;;;24.80;11.73;;;;;;;;;;4999493;28;20210;-73
2022/03/18 05:50:52;;;;;;;31.25;12.77;;;;;;;;;;4981749;28;20041;-72
2022/03/18 05:53:18;;;;;;;25.30;11.32;;;;;;;;;;5003945;28;20029;-73
2022/03/18 05:58:28;;;;;;;21.88;10.75;;;;;;;;;;4995767;28;20049;-72
2022/03/18 06:00:54;;;;;;;23.60;10.80;;;;;;;;;;5000861;28;20054;-74
2022/03/18 06:03:19;;;;;;;20.90;10.95;;;;;;;;;;4991929;28;20197;-72
2022/03/18 06:05:45;;;;;;;22.20;11.13;;;;;;;;;;4997977;28;20046;-72
2022/03/18 06:13:38;;;;;;;25.77;11.23;;;;;;;;;;4995603;28;20049;-74
2022/03/18 06:16:04;;;;;;;26.73;11.35;;;;;;;;;;4995149;28;20030;-74
2022/03/18 06:18:30;;;;;;;23.73;11.35;;;;;;;;;;4993137;28;20141;-76
2022/03/18 06:20:56;;;;;;;32.35;11.05;;;;;;;;;;4983656;28;20031;-74
2022/03/18 06:23:21;;;;;;;23.10;11.07;;;;;;;;;;4995802;28;20131;-74
2022/03/18 06:25:46;;;;;;;19.58;10.18;;;;;;;;;;4993178;28;20507;-75
2022/03/18 06:28:12;;;;;;;21.95;10.07;;;;;;;;;;5013386;28;20041;-76
2022/03/18 06:30:39;;;;;;;20.58;10.75;;;;;;;;;;5007795;28;20022;-73
2022/03/18 06:33:05;;;;;;;23.58;10.57;;;;;;;;;;4997129;28;20386;-75
2022/03/18 06:35:30;;;;;;;22.92;10.48;;;;;;;;;;5013777;28;20026;-75
2022/03/18 06:37:55;;;;;;;23.85;10.50;;;;;;;;;;4997714;28;20042;-79
2022/03/18 06:40:21;;;;;;;23.17;10.45;;;;;;;;;;5005010;28;20034;-80
2022/03/18 06:42:46;;;;;;;21.50;11.20;;;;;;;;;;4996403;28;20065;-81
2022/03/18 06:45:12;;;;;;;21.58;10.52;;;;;;;;;;5000706;28;20041;-77
2022/03/18 06:47:38;;;;;;;21.85;10.18;;;;;;;;;;5000124;28;20036;-75
2022/03/18 06:50:04;;;;;;;22.45;10.07;;;;;;;;;;5004237;28;20413;-75
2022/03/18 06:52:29;;;;;;;23.45;9.90;;;;;;;;;;4999436;28;20049;-75
2022/03/18 06:54:54;;;;;;;19.15;10.18;;;;;;;;;;5000161;28;20053;-75
2022/03/18 06:57:21;;;;;;;21.83;11.13;;;;;;;;;;4999287;28;20026;-76
2022/03/18 06:59:46;;;;;;;22.98;10.40;;;;;;;;;;5007267;28;20018;-75
2022/03/18 07:02:13;;;;;;;17.73;8.98;;;;;;;;;;5002132;28;20027;-75
2022/03/18 07:04:38;;;;;;;19.25;9.93;;;;;;;;;;5004235;28;20066;-75
2022/03/18 07:07:06;;;;;;;23.67;10.10;;;;;;;;;;5001538;28;20054;-74
2022/03/18 07:09:32;;;;;;;19.65;9.98;;;;;;;;;;4999487;28;20034;-74
2022/03/18 07:11:57;;;;;;;21.83;10.38;;;;;;;;;;5001224;28;20089;-74
2022/03/18 07:14:22;;;;;;;22.02;9.75;;;;;;;;;;5003411;28;20280;-74
2022/03/18 07:19:33;;;;;;;20.00;9.95;;;;;;;;;;4996239;28;20384;-74
2022/03/18 07:21:58;;;;;;;22.27;9.73;;;;;;;;;;5003598;28;20038;-74
2022/03/18 07:24:23;;;;;;;24.88;10.63;;;;;;;;;;5017005;28;20036;-75
2022/03/18 07:26:49;;;;;;;19.08;9.00;;;;;;;;;;5005467;28;20044;-78
2022/03/18 07:29:14;;;;;;;19.20;9.70;;;;;;;;;;5006307;28;20030;-73
2022/03/18 07:31:39;;;;;;;22.42;10.43;;;;;;;;;;5017822;28;20101;-77
2022/03/18 07:34:05;;;;;;;20.85;10.73;;;;;;;;;;4989750;28;20283;-77
2022/03/18 07:36:30;;;;;;;21.15;10.57;;;;;;;;;;4986272;28;20057;-78
2022/03/18 07:38:56;;;;;;;17.50;8.63;;;;;;;;;;4989901;28;20413;-74
2022/03/18 07:41:21;;;;;;;22.10;10.35;;;;;;;;;;4994007;28;20026;-77
2022/03/18 07:43:46;;;;;;;22.92;10.35;;;;;;;;;;4995672;28;20122;-75
2022/03/18 07:46:12;;;;;;;22.75;10.60;;;;;;;;;;4990200;28;20223;-78
2022/03/18 07:48:40;;;;;;;22.90;10.48;;;;;;;;;;4985332;28;20222;-74
2022/03/18 07:51:06;;;;;;;28.60;9.90;;;;;;;;;;4990405;28;20039;-75
2022/03/18 07:53:31;;;;;;;22.65;10.13;;;;;;;;;;4986705;28;20035;-76
2022/03/18 07:55:56;;;;;;;27.75;10.68;;;;;;;;;;4994622;28;20026;-76
2022/03/18 07:58:21;;;;;;;23.33;10.15;;;;;;;;;;4983586;28;20042;-78
2022/03/18 08:00:47;;;;;;;24.20;11.80;;;;;;;;;;4988552;28;20074;-78
2022/03/18 08:03:13;;;;;;;21.00;9.25;;;;;;;;;;5003152;28;20097;-77
2022/03/18 08:05:40;;;;;;;19.38;9.80;;;;;;;;;;5007605;28;20307;-74
2022/03/18 08:08:05;;;;;;;25.23;9.80;;;;;;;;;;5013385;28;20101;-77
2022/03/18 08:10:31;;;;;;;19.40;9.55;;;;;;;;;;5008341;28;20078;-76
2022/03/18 08:12:56;;;;;;;19.13;9.52;;;;;;;;;;5002592;28;20026;-78
2022/03/18 08:15:22;;;;;;;21.15;9.52;;;;;;;;;;5002554;28;20026;-75
2022/03/18 08:17:52;;;;;;;20.25;9.48;;;;;;;;;;5002811;28;20049;-75
2022/03/18 08:20:19;;;;;;;18.42;9.60;;;;;;;;;;5014093;28;20075;-74
2022/03/18 08:22:44;;;;;;;18.25;9.55;;;;;;;;;;5034177;28;20077;-74
2022/03/18 08:25:10;;;;;;;22.27;9.30;;;;;;;;;;5003611;28;20369;-74
2022/03/18 08:27:37;;;;;;;20.67;9.38;;;;;;;;;;5003753;28;20258;-74
2022/03/18 08:30:07;;;;;;;19.80;8.63;;;;;;;;;;5003106;28;20207;-74
2022/03/18 08:32:34;;;;;;;23.10;9.63;;;;;;;;;;5001784;28;20030;-74
2022/03/18 08:34:59;;;;;;;18.52;9.20;;;;;;;;;;5002427;28;20381;-74
2022/03/18 08:40:11;;;;;;;19.35;9.02;;;;;;;;;;5006022;28;20029;-74
2022/03/18 08:42:37;;;;;;;22.85;9.77;;;;;;;;;;5006595;28;20340;-74
2022/03/18 08:45:04;;;;;;;30.33;10.75;;;;;;;;;;5006027;28;20034;-74
2022/03/18 08:47:30;;;;;;;26.15;10.00;;;;;;;;;;5021086;28;20458;-73
2022/03/18 08:49:55;;;;;;;21.70;10.32;;;;;;;;;;5019657;28;20065;-74
2022/03/18 08:52:21;;;;;;;19.73;9.80;;;;;;;;;;5010336;28;20065;-78
2022/03/18 08:54:46;;;;;;;19.98;10.68;;;;;;;;;;5012877;28;20026;-73
2022/03/18 08:57:12;;;;;;;21.85;9.63;;;;;;;;;;5006530;28;20030;-74
2022/03/18 08:59:37;;;;;;;19.52;9.30;;;;;;;;;;4999674;28;20112;-74
2022/03/18 09:02:03;;;;;;;21.92;9.48;;;;;;;;;;5005608;28;20030;-74
2022/03/18 09:04:28;;;;;;;20.88;9.35;;;;;;;;;;5019791;28;20412;-74
2022/03/18 09:06:54;;;;;;;17.88;8.93;;;;;;;;;;5008137;28;20031;-74
2022/03/18 09:09:19;;;;;;;19.63;9.02;;;;;;;;;;5007034;28;20026;-74
2022/03/18 09:11:45;;;;;;;18.85;9.30;;;;;;;;;;5007838;28;20022;-75
2022/03/18 09:14:11;;;;;;;21.23;8.98;;;;;;;;;;5010984;28;20081;-74
2022/03/18 09:16:38;;;;;;;27.08;9.05;;;;;;;;;;5003357;28;20428;-74
2022/03/18 09:19:04;;;;;;;16.85;8.40;;;;;;;;;;5004262;28;20057;-74
2022/03/18 09:21:29;;;;;;;16.63;7.68;;;;;;;;;;5001403;28;20230;-75
2022/03/18 09:23:54;;;;;;;31.67;8.93;;;;;;;;;;5002404;28;20018;-75
2022/03/18 09:26:20;;;;;;;18.38;7.68;;;;;;;;;;5009470;28;20018;-75
2022/03/18 09:28:46;;;;;;;19.83;8.15;;;;;;;;;;5006257;28;20028;-75
2022/03/18 09:31:12;;;;;;;17.33;8.32;;;;;;;;;;5001411;28;20037;-75
2022/03/18 09:33:37;;;;;;;19.73;8.13;;;;;;;;;;5001271;28;20064;-74
2022/03/18 09:36:03;;;;;;;16.77;7.55;;;;;;;;;;5004354;28;20034;-75
2022/03/18 09:38:29;;;;;;;17.17;8.02;;;;;;;;;;5015217;28;20030;-75
2022/03/18 09:40:54;;;;;;;18.15;7.80;;;;;;;;;;5002450;28;20250;-74
2022/03/18 09:43:20;;;;;;;18.63;7.30;;;;;;;;;;5012254;28;20042;-74
2022/03/18 09:45:47;;;;;;;17.48;7.47;;;;;;;;;;5009572;28;20041;-75
2022/03/18 09:48:12;;;;;;;16.45;6.60;;;;;;;;;;5017684;28;20038;-74
2022/03/18 09:50:39;;;;;;;13.55;6.85;;;;;;;;;;5002834;28;20026;-75
2022/03/18 09:53:05;;;;;;;13.82;7.28;;;;;;;;;;5005323;28;20059;-77
2022/03/18 09:55:34;;;;;;;21.80;8.48;;;;;;;;;;5011482;28;20123;-76
2022/03/18 09:58:00;;;;;;;23.73;11.18;;;;;;;;;;5008147;28;20018;-76
2022/03/18 10:00:25;;;;;;;22.48;9.93;;;;;;;;;;5012804;28;20045;-74
2022/03/18 10:03:11;;;;;;;23.75;10.05;;;;;;;;;;5001237;28;20094;-74
2022/03/18 10:05:59;;;;;;;23.00;8.35;;;;;;;;;;4999853;28;20026;-74
2022/03/18 10:08:33;;;;;;;17.13;7.18;;;;;;;;;;5011006;28;20048;-74
2022/03/18 10:10:58;;;;;;;11.53;5.30;;;;;;;;;;5024201;28;20026;-75
2022/03/18 10:13:24;;;;;;;14.18;6.53;;;;;;;;;;5011690;28;20034;-74
2022/03/18 10:15:49;;;;;;;15.20;7.60;;;;;;;;;;5004816;28;20030;-75
2022/03/18 10:18:16;;;;;;;14.77;6.68;;;;;;;;;;5012765;28;20332;-74
2022/03/18 10:20:48;;;;;;;15.27;6.20;;;;;;;;;;5010853;28;20102;-74
2022/03/18 10:23:19;;;;;;;12.07;5.03;;;;;;;;;;5007998;28;20045;-74
2022/03/18 10:25:53;;;;;;;17.13;8.80;;;;;;;;;;5017113;28;20053;-74
2022/03/18 10:28:36;;;;;;;12.63;5.45;;;;;;;;;;5015864;28;20037;-75
2022/03/18 10:31:15;;;;;;;11.95;5.93;;;;;;;;;;5006061;28;20034;-75
2022/03/18 10:37:11;;;;;;;10.15;5.50;;;;;;;;;;5004712;28;20405;-75
2022/03/18 10:39:40;;;;;;;14.48;5.47;;;;;;;;;;5018314;28;20045;-74
2022/03/18 10:42:10;;;;;;;10.52;4.95;;;;;;;;;;5011114;28;20030;-75
2022/03/18 10:44:49;;;;;;;11.20;5.32;;;;;;;;;;5006491;28;20034;-75
2022/03/18 10:47:24;;;;;;;10.88;5.18;;;;;;;;;;5013914;28;20038;-77
2022/03/18 10:49:49;;;;;;;;;;;;;;;;;;4992066;28;20088;-76
2022/03/18 10:52:15;;;;;;;9.88;4.57;;;;;;;;;;5008742;28;19920;-75
2022/03/18 10:54:40;;;;;;;11.98;5.00;;;;;;;;;;5014668;28;20419;-80
2022/03/18 10:57:06;;;;;;;15.48;5.15;;;;;;;;;;5006995;28;20097;-76
2022/03/18 10:59:32;;;;;;;10.85;4.38;;;;;;;;;;5020980;28;20026;-77
2022/03/18 11:01:58;;;;;;;10.05;4.25;;;;;;;;;;5021946;28;20278;-74
2022/03/18 11:04:24;;;;;;;10.32;4.40;;;;;;;;;;5015525;28;20337;-79
2022/03/18 11:12:27;;;;;;;12.65;4.72;;;;;;;;;;5003457;28;20065;-79
2022/03/18 11:14:55;;;;;;;8.82;4.38;;;;;;;;;;5003531;28;20026;-79
2022/03/18 11:17:23;;;;;;;10.00;4.90;;;;;;;;;;5003455;28;20022;-78
2022/03/18 11:19:50;;;;;;;11.55;4.88;;;;;;;;;;5002043;28;20034;-77
2022/03/18 11:22:16;;;;;;;15.15;5.05;;;;;;;;;;5015177;28;20022;-78
2022/03/18 11:24:46;;;;;;;10.85;4.63;;;;;;;;;;5023414;28;20041;-80
2022/03/18 11:27:12;;;;;;;13.27;4.68;;;;;;;;;;5017890;28;20026;-76
2022/03/18 11:29:38;;;;;;;9.23;4.82;;;;;;;;;;5009062;28;20207;-81
2022/03/18 11:32:09;;;;;;;16.65;4.57;;;;;;;;;;4997101;28;20060;-77
2022/03/18 11:35:06;;;;;;;11.40;4.20;;;;;;;;;;5017478;28;20072;-78
2022/03/18 11:37:33;;;;;;;9.63;4.60;;;;;;;;;;4972874;28;20109;-77
2022/03/18 11:40:17;;;;;;;7.32;3.90;;;;;;;;;;4992008;28;20072;-76
2022/03/18 11:42:44;;;;;;;10.07;4.57;;;;;;;;;;5005274;28;20037;-77
2022/03/18 11:45:12;;;;;;;9.70;4.45;;;;;;;;;;4998936;28;20051;-77
2022/03/18 11:47:39;;;;;;;13.70;5.22;;;;;;;;;;5001371;28;20064;-77
2022/03/18 11:50:42;;;;;;;9.25;4.53;;;;;;;;;;5011894;28;20041;-78
2022/03/18 11:53:12;;;;;;;8.63;4.20;;;;;;;;;;5019425;28;20064;-75
2022/03/18 11:55:38;;;;;;;7.35;4.30;;;;;;;;;;5010386;28;20025;-76
2022/03/18 11:58:29;;;;;;;9.93;3.97;;;;;;;;;;5002215;28;20236;-74
2022/03/18 12:00:55;;;;;;;7.78;4.30;;;;;;;;;;5001822;28;20034;-76
2022/03/18 12:03:21;;;;;;;8.63;4.13;;;;;;;;;;5006203;28;20041;-75
2022/03/18 12:05:55;;;;;;;7.82;4.30;;;;;;;;;;5004924;28;20208;-76
2022/03/18 12:08:50;;;;;;;12.00;4.28;;;;;;;;;;5002636;28;20099;-76
2022/03/18 12:11:31;;;;;;;8.07;4.22;;;;;;;;;;5001433;28;20033;-76
2022/03/18 12:13:57;;;;;;;12.63;3.85;;;;;;;;;;5002116;28;20067;-78
2022/03/18 12:16:23;;;;;;;9.07;3.72;;;;;;;;;;5005118;28;20060;-75
2022/03/18 12:19:08;;;;;;;10.30;4.07;;;;;;;;;;5001004;28;20063;-75
2022/03/18 12:21:39;;;;;;;7.45;3.67;;;;;;;;;;5002050;28;20080;-76
2022/03/18 12:24:08;;;;;;;10.35;3.78;;;;;;;;;;5002237;28;20029;-74
2022/03/18 12:26:34;;;;;;;7.53;3.63;;;;;;;;;;5010877;28;20207;-75
2022/03/18 12:29:00;;;;;;;7.32;3.72;;;;;;;;;;5003372;28;20041;-73
2022/03/18 12:31:26;;;;;;;8.73;3.70;;;;;;;;;;5003247;28;20058;-74
2022/03/18 12:34:04;;;;;;;9.27;3.53;;;;;;;;;;5001568;28;20303;-77
2022/03/18 12:36:30;;;;;;;4.40;2.80;;;;;;;;;;5002269;28;20045;-78
2022/03/18 12:39:05;;;;;;;6.88;3.50;;;;;;;;;;5002436;28;20054;-75
2022/03/18 12:41:31;;;;;;;10.93;3.10;;;;;;;;;;5002176;28;20314;-75
2022/03/18 12:43:56;;;;;;;5.65;2.97;;;;;;;;;;5002186;28;20034;-76
2022/03/18 12:46:22;;;;;;;7.93;3.45;;;;;;;;;;5002592;28;20022;-75
2022/03/18 12:48:47;;;;;;;10.18;3.70;;;;;;;;;;5002042;28;20127;-76
2022/03/18 12:51:13;;;;;;;8.02;3.72;;;;;;;;;;5001980;28;20052;-74
2022/03/18 12:53:46;;;;;;;6.93;3.40;;;;;;;;;;5002278;28;20022;-75
2022/03/18 12:56:18;;;;;;;10.10;3.45;;;;;;;;;;5002190;28;20029;-79
2022/03/18 12:58:45;;;;;;;8.40;3.95;;;;;;;;;;5002437;28;20057;-79
2022/03/18 13:01:12;;;;;;;8.20;3.10;;;;;;;;;;5002121;28;20471;-77
2022/03/18 13:03:47;;;;;;;8.18;3.60;;;;;;;;;;5001784;28;20022;-76
2022/03/18 13:06:18;;;;;;;9.07;3.30;;;;;;;;;;5001385;28;20026;-76
2022/03/18 13:09:06;;;;;;;7.35;2.72;;;;;;;;;;5001887;28;20054;-75
2022/03/18 13:11:33;;;;;;;11.57;3.35;;;;;;;;;;5001866;28;20314;-78
2022/03/18 13:13:58;;;;;;;7.57;2.88;;;;;;;;;;5001886;28;20343;-75
2022/03/18 13:16:35;;;;;;;6.20;2.83;;;;;;;;;;5001607;28;20125;-78
2022/03/18 13:19:02;;;;;;;8.13;3.03;;;;;;;;;;5001650;28;20069;-75
2022/03/18 13:21:28;;;;;;;10.25;3.40;;;;;;;;;;5001583;28;20022;-76
2022/03/18 13:23:55;;;;;;;7.18;2.60;;;;;;;;;;5001750;28;20330;-74
2022/03/18 13:26:21;;;;;;;5.78;2.50;;;;;;;;;;5001626;28;20030;-74
2022/03/18 13:28:50;;;;;;;5.10;2.67;;;;;;;;;;5001755;28;20052;-76
2022/03/18 13:34:01;;;;;;;7.45;2.42;;;;;;;;;;5001445;28;20064;-74
2022/03/18 13:36:38;;;;;;;7.22;2.92;;;;;;;;;;5000984;28;20050;-75
2022/03/18 13:39:06;;;;;;;7.43;2.70;;;;;;;;;;5001788;28;20322;-75
2022/03/18 13:41:48;;;;;;;6.10;2.80;;;;;;;;;;5001430;28;20195;-75
2022/03/18 13:44:14;;;;;;;8.65;2.90;;;;;;;;;;5000757;28;20222;-74
2022/03/18 13:46:39;;;;;;;5.85;3.00;;;;;;;;;;5001033;28;20030;-75
2022/03/18 13:49:23;;;;;;;5.85;2.97;;;;;;;;;;5001132;28;20030;-74
2022/03/18 13:51:51;;;;;;;9.48;3.40;;;;;;;;;;5001120;28;20385;-75
2022/03/18 13:54:21;;;;;;;7.60;3.10;;;;;;;;;;5001414;28;20030;-74
2022/03/18 13:57:02;;;;;;;5.00;2.60;;;;;;;;;;5001275;28;20246;-75
2022/03/18 13:59:29;;;;;;;9.95;3.08;;;;;;;;;;5001236;28;20035;-74
2022/03/18 14:02:06;;;;;;;7.85;3.00;;;;;;;;;;5001540;28;20026;-75
2022/03/18 14:04:40;;;;;;;7.57;2.85;;;;;;;;;;5001399;28;20064;-74
2022/03/18 14:07:05;;;;;;;5.22;2.88;;;;;;;;;;5001480;28;20033;-74
2022/03/18 14:09:31;;;;;;;8.70;3.10;;;;;;;;;;5001165;28;20058;-74
2022/03/18 14:12:11;;;;;;;5.13;2.90;;;;;;;;;;5001119;28;20041;-74
2022/03/18 14:14:37;;;;;;;6.95;2.95;;;;;;;;;;5001406;28;20022;-75
2022/03/18 14:17:13;;;;;;;6.35;3.22;;;;;;;;;;5001291;28;20030;-75
2022/03/18 14:19:56;;;;;;;8.00;3.10;;;;;;;;;;4999804;28;20089;-74
2022/03/18 14:22:43;;;;;;;5.10;3.00;;;;;;;;;;4991423;28;20031;-74
2022/03/18 14:25:17;;;;;;;7.35;3.00;;;;;;;;;;4981057;28;20101;-74
2022/03/18 14:27:47;;;;;;;6.68;2.78;;;;;;;;;;4980805;28;20023;-73
2022/03/18 14:30:25;;;;;;;5.30;2.78;;;;;;;;;;4981193;28;20023;-73
2022/03/18 14:32:53;;;;;;;9.30;3.00;;;;;;;;;;4981059;28;20022;-74
2022/03/18 14:35:19;;;;;;;7.57;2.72;;;;;;;;;;4980848;28;20054;-74
2022/03/18 14:37:45;;;;;;;5.03;2.80;;;;;;;;;;4980837;28;20339;-74
2022/03/18 14:40:15;;;;;;;11.48;2.17;;;;;;;;;;4984224;28;20199;-74
2022/03/18 14:42:42;;;;;;;5.97;2.40;;;;;;;;;;4981300;28;20298;-75
2022/03/18 14:45:09;;;;;;;7.30;2.70;;;;;;;;;;4981254;28;20254;-73
2022/03/18 14:47:34;;;;;;;4.85;2.50;;;;;;;;;;4981168;28;20026;-72
2022/03/18 14:50:00;;;;;;;5.40;2.17;;;;;;;;;;4981302;28;20077;-74
2022/03/18 14:52:26;;;;;;;4.38;2.00;;;;;;;;;;4981196;28;20090;-74
2022/03/18 14:57:35;;;;;;;5.18;2.63;;;;;;;;;;4984397;28;20029;-73
2022/03/18 15:00:01;;;;;;;11.13;3.08;;;;;;;;;;4984816;28;20046;-73
2022/03/18 15:02:27;;;;;;;8.52;3.05;;;;;;;;;;4984739;28;20260;-72
2022/03/18 15:04:52;;;;;;;7.13;3.03;;;;;;;;;;4984760;28;20094;-74
2022/03/18 15:07:19;;;;;;;8.10;3.20;;;;;;;;;;4984315;28;20022;-73